PN08 weather

Davis Airport
Chambersville, Pennsylvania, United States

Public forecast

Using degrees Fahrenheit for public forecast. Weather courtesy of forecast.io.

METAR (pilot weather report)

Closest report is Indiana County/Jimmy Stewart Fld/ Airport, 6.6 nm (12.3 km) SSE. Retrieved 2019/07/21 20:35 UTC (0 seconds ago):

KIDI 212035Z AUTO 23008KT 10SM FEW080 SCT090 29/24 A2997 RMK A01

TAF (pilot weather forecast)

Closest forecast is DuBois Regional Airport, 29.2 nm (54.0 km) NNE. Retrieved 2019/07/21 18:39 UTC (2 hours ago):

TAF KDUJ 211736Z 2118/2218 28004KT P6SM VCSH BKN035 FM220200 35004KT P6SM BKN100 FM220900 05004KT P6SM VCSH OVC025 FM221400 06004KT 4SM -SHRA VCTS OVC010CB